Time,TemperatureF,DewpointF,PressureIn,WindDirection,WindDirectionDegrees,WindSpeedMPH,WindSpeedGustMPH,Humidity,HourlyPrecipIn,Conditions,Clouds,dailyrainin,SoftwareType,DateUTC
2013-09-08 00:13:00,79.0,72.0,29.83,South,184,0.0,-999.0,78,-99.99,,,-99.99,,2013-09-08 05:13:00,
2013-09-08 00:23:00,78.0,71.0,29.83,South,184,0.0,-999.0,80,-99.99,,,-99.99,,2013-09-08 05:23:00,
2013-09-08 00:52:00,77.0,71.0,29.84,South,184,0.0,-999.0,82,-99.99,,,-99.99,,2013-09-08 05:52:00,
2013-09-08 01:13:00,75.0,70.0,29.84,South,184,0.0,-999.0,85,-99.99,,,-99.99,,2013-09-08 06:13:00,
2013-09-08 01:21:00,75.0,71.0,29.84,South,184,0.0,-999.0,86,-99.99,,,-99.99,,2013-09-08 06:21:00,
2013-09-08 01:53:00,74.0,70.0,29.84,South,184,0.0,-999.0,88,-99.99,,,-99.99,,2013-09-08 06:53:00,
2013-09-08 02:12:00,74.0,70.0,29.84,South,184,0.0,-999.0,88,-99.99,,,-99.99,,2013-09-08 07:12:00,
2013-09-08 02:23:00,74.0,71.0,29.84,South,184,0.0,-999.0,89,-99.99,,,-99.99,,2013-09-08 07:23:00,
2013-09-08 02:52:00,73.0,70.0,29.84,South,184,0.0,-999.0,89,-99.99,,,-99.99,,2013-09-08 07:52:00,
2013-09-08 03:11:00,72.0,69.0,29.84,South,184,0.0,-999.0,90,-99.99,,,-99.99,,2013-09-08 08:11:00,
2013-09-08 03:22:00,72.0,69.0,29.84,South,184,0.0,-999.0,90,-99.99,,,-99.99,,2013-09-08 08:22:00,
2013-09-08 03:52:00,71.0,68.0,29.84,South,184,0.0,-999.0,91,-99.99,,,-99.99,,2013-09-08 08:52:00,
2013-09-08 04:11:00,71.0,68.0,29.84,South,184,0.0,-999.0,91,-99.99,,,-99.99,,2013-09-08 09:11:00,
2013-09-08 04:22:00,71.0,69.0,29.84,South,184,0.0,-999.0,92,-99.99,,,-99.99,,2013-09-08 09:22:00,
2013-09-08 04:54:00,70.0,68.0,29.84,South,184,0.0,-999.0,92,-99.99,,,-99.99,,2013-09-08 09:54:00,
2013-09-08 05:12:00,70.0,68.0,29.84,South,184,0.0,-999.0,92,-99.99,,,-99.99,,2013-09-08 10:12:00,
2013-09-08 05:23:00,69.0,67.0,29.84,South,184,0.0,-999.0,93,-99.99,,,-99.99,,2013-09-08 10:23:00,
2013-09-08 05:53:00,70.0,68.0,29.83,South,184,0.0,-999.0,93,-99.99,,,-99.99,,2013-09-08 10:53:00,
2013-09-08 06:12:00,69.0,67.0,29.83,South,184,0.0,-999.0,93,-99.99,,,-99.99,,2013-09-08 11:12:00,
2013-09-08 06:21:00,68.0,66.0,29.83,South,184,0.0,-999.0,93,-99.99,,,-99.99,,2013-09-08 11:21:00,
2013-09-08 06:42:00,68.0,66.0,29.83,South,184,0.0,-999.0,94,-99.99,,,-99.99,,2013-09-08 11:42:00,
2013-09-08 06:52:00,68.0,66.0,29.83,South,184,0.0,-999.0,94,-99.99,,,-99.99,,2013-09-08 11:52:00,
2013-09-08 07:12:00,68.0,66.0,29.83,South,184,0.0,-999.0,93,-99.99,,,-99.99,,2013-09-08 12:12:00,
2013-09-08 07:22:00,68.0,66.0,29.83,South,184,0.0,-999.0,94,-99.99,,,-99.99,,2013-09-08 12:22:00,
2013-09-08 07:52:00,68.0,66.0,29.83,South,184,0.0,-999.0,94,-99.99,,,-99.99,,2013-09-08 12:52:00,
2013-09-08 08:12:00,68.0,66.0,29.84,South,184,0.0,-999.0,94,-99.99,,,-99.99,,2013-09-08 13:12:00,
2013-09-08 08:22:00,69.0,67.0,29.83,South,184,0.0,-999.0,94,-99.99,,,-99.99,,2013-09-08 13:22:00,
2013-09-08 08:42:00,71.0,69.0,29.83,South,184,0.0,-999.0,95,-99.99,,,-99.99,,2013-09-08 13:42:00,
2013-09-08 08:52:00,72.0,70.0,29.82,South,184,0.0,-999.0,95,-99.99,,,-99.99,,2013-09-08 13:52:00,
2013-09-08 09:11:00,74.0,72.0,29.82,South,184,0.0,-999.0,95,-99.99,,,-99.99,,2013-09-08 14:11:00,
2013-09-08 09:22:00,75.0,73.0,29.82,South,184,0.0,-999.0,93,-99.99,,,-99.99,,2013-09-08 14:22:00,
2013-09-08 09:42:00,77.0,73.0,29.82,South,184,0.0,-999.0,88,-99.99,,,-99.99,,2013-09-08 14:42:00,
2013-09-08 09:52:00,80.0,73.0,29.83,South,184,0.0,-999.0,79,-99.99,,,-99.99,,2013-09-08 14:52:00,
2013-09-08 10:12:00,81.0,72.0,29.83,South,184,0.0,-999.0,74,-99.99,,,-99.99,,2013-09-08 15:12:00,
2013-09-08 10:23:00,82.0,73.0,29.82,South,184,0.0,-999.0,74,-99.99,,,-99.99,,2013-09-08 15:23:00,
2013-09-08 10:45:00,82.0,72.0,29.83,South,184,0.0,-999.0,73,-99.99,,,-99.99,,2013-09-08 15:45:00,
2013-09-08 10:55:00,83.0,73.0,29.83,South,184,0.0,-999.0,73,-99.99,,,-99.99,,2013-09-08 15:55:00,
2013-09-08 11:14:00,84.0,73.0,29.83,South,184,0.0,-999.0,70,-99.99,,,-99.99,,2013-09-08 16:14:00,
2013-09-08 11:23:00,87.0,74.0,29.83,South,184,0.0,-999.0,66,-99.99,,,-99.99,,2013-09-08 16:23:00,
2013-09-08 11:44:00,86.0,72.0,29.83,South,184,0.0,-999.0,63,-99.99,,,-99.99,,2013-09-08 16:44:00,
2013-09-08 11:53:00,88.0,73.0,29.83,South,184,0.0,-999.0,62,-99.99,,,-99.99,,2013-09-08 16:53:00,
2013-09-08 12:12:00,89.0,72.0,29.82,South,184,0.0,-999.0,58,-99.99,,,-99.99,,2013-09-08 17:12:00,
2013-09-08 12:23:00,90.0,73.0,29.82,South,184,0.0,-999.0,58,-99.99,,,-99.99,,2013-09-08 17:23:00,
2013-09-08 12:53:00,91.0,73.0,29.81,South,184,0.0,-999.0,55,-99.99,,,-99.99,,2013-09-08 17:53:00,
2013-09-08 13:13:00,93.0,71.0,29.80,South,184,0.0,-999.0,49,-99.99,,,-99.99,,2013-09-08 18:13:00,
2013-09-08 13:22:00,94.0,71.0,29.80,South,184,0.0,-999.0,47,-99.99,,,-99.99,,2013-09-08 18:22:00,
2013-09-08 13:52:00,96.0,72.0,29.80,South,184,0.0,-999.0,46,-99.99,,,-99.99,,2013-09-08 18:52:00,
2013-09-08 14:12:00,95.0,70.0,29.79,South,184,0.0,-999.0,44,-99.99,,,-99.99,,2013-09-08 19:12:00,
2013-09-08 14:22:00,96.0,71.0,29.80,South,184,0.0,-999.0,45,-99.99,,,-99.99,,2013-09-08 19:22:00,
2013-09-08 14:52:00,95.0,74.0,29.81,South,184,0.0,-999.0,51,-99.99,,,-99.99,,2013-09-08 19:52:00,
2013-09-08 15:11:00,95.0,74.0,29.81,South,184,0.0,-999.0,51,-99.99,,,-99.99,,2013-09-08 20:11:00,
2013-09-08 15:22:00,93.0,70.0,29.81,South,184,0.0,-999.0,47,-99.99,,,-99.99,,2013-09-08 20:22:00,
2013-09-08 15:42:00,92.0,68.0,29.80,South,184,0.0,-999.0,45,-99.99,,,-99.99,,2013-09-08 20:42:00,
2013-09-08 15:53:00,90.0,69.0,29.79,South,184,0.0,-999.0,51,-99.99,,,-99.99,,2013-09-08 20:53:00,
2013-09-08 16:22:00,88.0,72.0,29.77,South,184,0.0,-999.0,59,-99.99,,,-99.99,,2013-09-08 21:22:00,
2013-09-08 17:24:00,88.0,72.0,29.72,South,181,6.0,-999.0,59,-99.99,,,-99.99,,2013-09-08 22:24:00,
2013-09-08 17:53:00,90.0,76.0,29.72,SSE,157,1.0,-999.0,63,-99.99,,,-99.99,,2013-09-08 22:53:00,
2013-09-08 18:12:00,93.0,73.0,29.71,South,175,1.0,-999.0,52,-99.99,,,-99.99,,2013-09-08 23:12:00,
2013-09-08 18:22:00,93.0,75.0,29.71,South,175,0.0,-999.0,56,-99.99,,,-99.99,,2013-09-08 23:22:00,
2013-09-08 18:52:00,93.0,76.0,29.72,South,175,0.0,-999.0,58,-99.99,,,-99.99,,2013-09-08 23:52:00,
2013-09-08 19:11:00,90.0,72.0,29.73,South,175,0.0,-999.0,56,-99.99,,,-99.99,,2013-09-09 00:11:00,
2013-09-08 19:22:00,86.0,72.0,29.73,South,175,0.0,-999.0,63,-99.99,,,-99.99,,2013-09-09 00:22:00,
2013-09-08 21:22:00,77.0,71.0,29.76,South,175,0.0,-999.0,82,-99.99,,,-99.99,,2013-09-09 02:22:00,
2013-09-08 21:42:00,77.0,72.0,29.76,South,175,0.0,-999.0,84,-99.99,,,-99.99,,2013-09-09 02:42:00,
2013-09-08 21:53:00,76.0,71.0,29.76,South,175,0.0,-999.0,85,-99.99,,,-99.99,,2013-09-09 02:53:00,
2013-09-08 22:22:00,75.0,71.0,29.76,South,175,0.0,-999.0,86,-99.99,,,-99.99,,2013-09-09 03:22:00,
2013-09-08 22:55:00,75.0,71.0,29.77,South,175,0.0,-999.0,87,-99.99,,,-99.99,,2013-09-09 03:55:00,
2013-09-08 23:14:00,75.0,71.0,29.77,South,175,0.0,-999.0,87,-99.99,,,-99.99,,2013-09-09 04:14:00,
2013-09-08 23:24:00,75.0,70.0,29.78,South,175,0.0,-999.0,85,-99.99,,,-99.99,,2013-09-09 04:24:00,
2013-09-08 23:54:00,76.0,69.0,29.78,South,175,0.0,-999.0,80,-99.99,,,-99.99,,2013-09-09 04:54:00,